sensor_id;sensor_type;location;lat;lon;timestamp;temperature;humidity
53268;DHT22;39156;51.176;6.738;2023-12-20T00:02:11;8.00;88.40
53268;DHT22;39156;51.176;6.738;2023-12-20T00:04:37;8.00;88.50
53268;DHT22;39156;51.176;6.738;2023-12-20T00:07:02;7.90;88.50
53268;DHT22;39156;51.176;6.738;2023-12-20T00:09:28;7.90;88.60
53268;DHT22;39156;51.176;6.738;2023-12-20T00:11:53;8.00;88.70
53268;DHT22;39156;51.176;6.738;2023-12-20T00:14:19;7.90;88.70
53268;DHT22;39156;51.176;6.738;2023-12-20T00:16:45;7.90;88.70
53268;DHT22;39156;51.176;6.738;2023-12-20T00:19:11;8.00;88.70
53268;DHT22;39156;51.176;6.738;2023-12-20T00:21:36;7.90;88.60
53268;DHT22;39156;51.176;6.738;2023-12-20T00:24:02;7.90;88.70
53268;DHT22;39156;51.176;6.738;2023-12-20T00:26:28;7.90;88.60
53268;DHT22;39156;51.176;6.738;2023-12-20T00:28:53;7.80;88.50
53268;DHT22;39156;51.176;6.738;2023-12-20T00:31:19;7.90;88.50
53268;DHT22;39156;51.176;6.738;2023-12-20T00:33:44;7.80;88.30
53268;DHT22;39156;51.176;6.738;2023-12-20T00:36:12;7.80;88.30
53268;DHT22;39156;51.176;6.738;2023-12-20T00:38:38;7.80;88.40
53268;DHT22;39156;51.176;6.738;2023-12-20T00:41:03;7.80;88.20
53268;DHT22;39156;51.176;6.738;2023-12-20T00:43:29;7.80;88.20
53268;DHT22;39156;51.176;6.738;2023-12-20T00:45:54;7.80;88.20
53268;DHT22;39156;51.176;6.738;2023-12-20T00:48:20;7.80;88.10
53268;DHT22;39156;51.176;6.738;2023-12-20T00:50:46;7.70;88.00
53268;DHT22;39156;51.176;6.738;2023-12-20T00:53:12;7.60;87.70
53268;DHT22;39156;51.176;6.738;2023-12-20T00:55:37;7.60;87.60
53268;DHT22;39156;51.176;6.738;2023-12-20T00:58:03;7.60;87.80
53268;DHT22;39156;51.176;6.738;2023-12-20T01:00:29;7.60;87.90
53268;DHT22;39156;51.176;6.738;2023-12-20T01:02:54;7.50;87.90
53268;DHT22;39156;51.176;6.738;2023-12-20T01:05:20;7.50;88.00
53268;DHT22;39156;51.176;6.738;2023-12-20T01:07:48;7.40;88.00
53268;DHT22;39156;51.176;6.738;2023-12-20T01:10:14;7.50;88.00
53268;DHT22;39156;51.176;6.738;2023-12-20T01:12:40;7.50;88.00
53268;DHT22;39156;51.176;6.738;2023-12-20T01:15:05;7.40;87.80
53268;DHT22;39156;51.176;6.738;2023-12-20T01:17:31;7.40;88.50
53268;DHT22;39156;51.176;6.738;2023-12-20T01:19:57;7.30;87.60
53268;DHT22;39156;51.176;6.738;2023-12-20T01:22:23;7.30;87.70
53268;DHT22;39156;51.176;6.738;2023-12-20T01:24:49;7.20;87.60
53268;DHT22;39156;51.176;6.738;2023-12-20T01:27:14;7.20;87.70
53268;DHT22;39156;51.176;6.738;2023-12-20T01:29:40;7.20;87.80
53268;DHT22;39156;51.176;6.738;2023-12-20T01:32:05;7.20;88.00
53268;DHT22;39156;51.176;6.738;2023-12-20T01:34:31;7.20;88.10
53268;DHT22;39156;51.176;6.738;2023-12-20T01:36:57;7.30;88.40
53268;DHT22;39156;51.176;6.738;2023-12-20T01:39:23;7.20;88.40
53268;DHT22;39156;51.176;6.738;2023-12-20T01:41:48;7.30;88.30
53268;DHT22;39156;51.176;6.738;2023-12-20T01:44:14;7.20;88.10
53268;DHT22;39156;51.176;6.738;2023-12-20T01:46:39;7.20;88.10
53268;DHT22;39156;51.176;6.738;2023-12-20T01:49:06;7.30;88.20
53268;DHT22;39156;51.176;6.738;2023-12-20T01:51:32;7.30;88.20
53268;DHT22;39156;51.176;6.738;2023-12-20T01:53:58;7.20;88.00
53268;DHT22;39156;51.176;6.738;2023-12-20T01:56:24;7.20;87.90
53268;DHT22;39156;51.176;6.738;2023-12-20T01:58:51;7.20;87.80
53268;DHT22;39156;51.176;6.738;2023-12-20T02:01:16;7.20;87.60
53268;DHT22;39156;51.176;6.738;2023-12-20T02:03:43;7.10;87.70
53268;DHT22;39156;51.176;6.738;2023-12-20T02:06:09;7.10;87.50
53268;DHT22;39156;51.176;6.738;2023-12-20T02:08:35;7.10;87.60
53268;DHT22;39156;51.176;6.738;2023-12-20T02:11:01;7.00;87.30
53268;DHT22;39156;51.176;6.738;2023-12-20T02:13:27;6.90;87.00
53268;DHT22;39156;51.176;6.738;2023-12-20T02:15:52;6.90;87.20
53268;DHT22;39156;51.176;6.738;2023-12-20T02:18:19;6.80;87.10
53268;DHT22;39156;51.176;6.738;2023-12-20T02:20:44;6.80;87.10
53268;DHT22;39156;51.176;6.738;2023-12-20T02:23:10;6.70;87.10
53268;DHT22;39156;51.176;6.738;2023-12-20T02:25:35;6.70;87.20
53268;DHT22;39156;51.176;6.738;2023-12-20T02:28:02;6.60;87.00
53268;DHT22;39156;51.176;6.738;2023-12-20T02:30:29;6.60;87.10
53268;DHT22;39156;51.176;6.738;2023-12-20T02:32:54;6.50;87.20
53268;DHT22;39156;51.176;6.738;2023-12-20T02:35:21;6.50;87.30
53268;DHT22;39156;51.176;6.738;2023-12-20T02:37:46;6.50;87.50
53268;DHT22;39156;51.176;6.738;2023-12-20T02:40:12;6.50;87.40
53268;DHT22;39156;51.176;6.738;2023-12-20T02:42:37;6.50;87.50
53268;DHT22;39156;51.176;6.738;2023-12-20T02:45:03;6.50;87.60
53268;DHT22;39156;51.176;6.738;2023-12-20T02:47:29;6.40;87.70
53268;DHT22;39156;51.176;6.738;2023-12-20T02:49:55;6.40;87.60
53268;DHT22;39156;51.176;6.738;2023-12-20T02:52:21;6.50;87.70
53268;DHT22;39156;51.176;6.738;2023-12-20T02:54:48;6.40;87.70
53268;DHT22;39156;51.176;6.738;2023-12-20T02:57:14;6.50;87.70
53268;DHT22;39156;51.176;6.738;2023-12-20T02:59:39;6.40;87.80
53268;DHT22;39156;51.176;6.738;2023-12-20T03:02:05;6.50;87.90
53268;DHT22;39156;51.176;6.738;2023-12-20T03:04:30;6.50;88.00
53268;DHT22;39156;51.176;6.738;2023-12-20T03:06:56;6.50;88.10
53268;DHT22;39156;51.176;6.738;2023-12-20T03:09:22;6.50;88.10
53268;DHT22;39156;51.176;6.738;2023-12-20T03:11:47;6.60;88.10
53268;DHT22;39156;51.176;6.738;2023-12-20T03:14:13;6.50;87.90
53268;DHT22;39156;51.176;6.738;2023-12-20T03:16:38;6.60;87.90
53268;DHT22;39156;51.176;6.738;2023-12-20T03:19:04;6.60;87.90
53268;DHT22;39156;51.176;6.738;2023-12-20T03:21:29;6.60;87.80
53268;DHT22;39156;51.176;6.738;2023-12-20T03:23:55;6.50;87.80
53268;DHT22;39156;51.176;6.738;2023-12-20T03:26:21;6.50;87.70
53268;DHT22;39156;51.176;6.738;2023-12-20T03:28:47;6.50;87.60
53268;DHT22;39156;51.176;6.738;2023-12-20T03:31:13;6.50;87.60
53268;DHT22;39156;51.176;6.738;2023-12-20T03:33:39;6.50;87.40
53268;DHT22;39156;51.176;6.738;2023-12-20T03:36:05;6.40;87.40
53268;DHT22;39156;51.176;6.738;2023-12-20T03:38:30;6.40;87.30
53268;DHT22;39156;51.176;6.738;2023-12-20T03:40:56;6.40;87.40
53268;DHT22;39156;51.176;6.738;2023-12-20T03:43:21;6.30;87.40
53268;DHT22;39156;51.176;6.738;2023-12-20T03:45:47;6.30;87.40
53268;DHT22;39156;51.176;6.738;2023-12-20T03:48:13;6.30;87.20
53268;DHT22;39156;51.176;6.738;2023-12-20T03:50:38;6.20;87.30
53268;DHT22;39156;51.176;6.738;2023-12-20T03:53:04;6.20;87.30
53268;DHT22;39156;51.176;6.738;2023-12-20T03:55:29;6.10;87.30
53268;DHT22;39156;51.176;6.738;2023-12-20T03:57:55;6.20;87.50
53268;DHT22;39156;51.176;6.738;2023-12-20T04:00:21;6.10;87.40
53268;DHT22;39156;51.176;6.738;2023-12-20T04:02:46;6.10;87.50
53268;DHT22;39156;51.176;6.738;2023-12-20T04:05:12;6.10;87.30
53268;DHT22;39156;51.176;6.738;2023-12-20T04:07:38;6.10;87.50
53268;DHT22;39156;51.176;6.738;2023-12-20T04:10:04;6.20;87.70
53268;DHT22;39156;51.176;6.738;2023-12-20T04:12:30;6.00;87.50
53268;DHT22;39156;51.176;6.738;2023-12-20T04:14:56;6.10;87.40
53268;DHT22;39156;51.176;6.738;2023-12-20T04:17:22;6.00;87.50
53268;DHT22;39156;51.176;6.738;2023-12-20T04:19:50;6.10;87.40
53268;DHT22;39156;51.176;6.738;2023-12-20T04:22:17;6.10;87.50
53268;DHT22;39156;51.176;6.738;2023-12-20T04:24:43;5.90;87.30
53268;DHT22;39156;51.176;6.738;2023-12-20T04:27:09;5.90;87.20
53268;DHT22;39156;51.176;6.738;2023-12-20T04:29:34;6.00;87.40
53268;DHT22;39156;51.176;6.738;2023-12-20T04:32:00;5.80;87.10
53268;DHT22;39156;51.176;6.738;2023-12-20T04:34:25;5.90;87.30
53268;DHT22;39156;51.176;6.738;2023-12-20T04:36:51;5.80;87.40
53268;DHT22;39156;51.176;6.738;2023-12-20T04:39:17;5.80;87.40
53268;DHT22;39156;51.176;6.738;2023-12-20T04:41:43;5.80;87.50
53268;DHT22;39156;51.176;6.738;2023-12-20T04:44:08;5.80;87.90
53268;DHT22;39156;51.176;6.738;2023-12-20T04:46:34;5.90;87.90
53268;DHT22;39156;51.176;6.738;2023-12-20T04:49:00;5.80;88.00
53268;DHT22;39156;51.176;6.738;2023-12-20T04:51:25;5.80;87.80
53268;DHT22;39156;51.176;6.738;2023-12-20T04:53:51;5.80;87.70
53268;DHT22;39156;51.176;6.738;2023-12-20T04:56:16;5.90;87.80
53268;DHT22;39156;51.176;6.738;2023-12-20T04:58:42;5.90;88.00
53268;DHT22;39156;51.176;6.738;2023-12-20T05:01:08;5.90;87.90
53268;DHT22;39156;51.176;6.738;2023-12-20T05:03:34;5.90;87.80
53268;DHT22;39156;51.176;6.738;2023-12-20T05:06:00;5.90;87.80
53268;DHT22;39156;51.176;6.738;2023-12-20T05:08:26;5.90;87.70
53268;DHT22;39156;51.176;6.738;2023-12-20T05:10:53;5.90;88.20
53268;DHT22;39156;51.176;6.738;2023-12-20T05:13:19;5.90;87.60
53268;DHT22;39156;51.176;6.738;2023-12-20T05:15:45;5.80;87.60
53268;DHT22;39156;51.176;6.738;2023-12-20T05:18:10;5.80;87.60
53268;DHT22;39156;51.176;6.738;2023-12-20T05:20:36;5.90;87.50
53268;DHT22;39156;51.176;6.738;2023-12-20T05:23:01;5.90;87.50
53268;DHT22;39156;51.176;6.738;2023-12-20T05:25:27;5.90;87.50
53268;DHT22;39156;51.176;6.738;2023-12-20T05:27:52;5.90;87.60
53268;DHT22;39156;51.176;6.738;2023-12-20T05:30:18;5.90;87.60
53268;DHT22;39156;51.176;6.738;2023-12-20T05:32:44;5.80;87.70
53268;DHT22;39156;51.176;6.738;2023-12-20T05:35:09;5.90;87.70
53268;DHT22;39156;51.176;6.738;2023-12-20T05:37:35;5.80;87.60
53268;DHT22;39156;51.176;6.738;2023-12-20T05:40:00;5.90;87.60
53268;DHT22;39156;51.176;6.738;2023-12-20T05:42:26;5.80;87.60
53268;DHT22;39156;51.176;6.738;2023-12-20T05:44:52;5.80;87.60
53268;DHT22;39156;51.176;6.738;2023-12-20T05:47:17;5.80;87.70
53268;DHT22;39156;51.176;6.738;2023-12-20T05:49:43;5.90;87.80
53268;DHT22;39156;51.176;6.738;2023-12-20T05:52:09;5.90;87.80
53268;DHT22;39156;51.176;6.738;2023-12-20T05:54:35;5.90;87.90
53268;DHT22;39156;51.176;6.738;2023-12-20T05:57:00;5.90;87.90
53268;DHT22;39156;51.176;6.738;2023-12-20T05:59:26;5.90;88.00
53268;DHT22;39156;51.176;6.738;2023-12-20T06:01:52;6.00;88.10
53268;DHT22;39156;51.176;6.738;2023-12-20T06:04:17;6.00;88.20
53268;DHT22;39156;51.176;6.738;2023-12-20T06:06:43;5.90;88.20
53268;DHT22;39156;51.176;6.738;2023-12-20T06:09:09;6.00;88.30
53268;DHT22;39156;51.176;6.738;2023-12-20T06:11:35;6.10;88.30
53268;DHT22;39156;51.176;6.738;2023-12-20T06:14:00;6.00;88.20
53268;DHT22;39156;51.176;6.738;2023-12-20T06:16:26;6.10;88.30
53268;DHT22;39156;51.176;6.738;2023-12-20T06:18:51;6.10;88.20
53268;DHT22;39156;51.176;6.738;2023-12-20T06:21:17;6.10;88.10
53268;DHT22;39156;51.176;6.738;2023-12-20T06:23:43;6.10;88.10
53268;DHT22;39156;51.176;6.738;2023-12-20T06:26:08;6.10;88.00
53268;DHT22;39156;51.176;6.738;2023-12-20T06:28:34;6.20;88.10
53268;DHT22;39156;51.176;6.738;2023-12-20T06:30:59;6.10;88.10
53268;DHT22;39156;51.176;6.738;2023-12-20T06:33:26;6.20;88.10
53268;DHT22;39156;51.176;6.738;2023-12-20T06:35:51;6.30;88.10
53268;DHT22;39156;51.176;6.738;2023-12-20T06:38:17;6.20;88.10
53268;DHT22;39156;51.176;6.738;2023-12-20T06:40:43;6.30;88.10
53268;DHT22;39156;51.176;6.738;2023-12-20T06:43:09;6.30;88.10
53268;DHT22;39156;51.176;6.738;2023-12-20T06:45:35;6.30;88.10
53268;DHT22;39156;51.176;6.738;2023-12-20T06:48:00;6.40;88.10
53268;DHT22;39156;51.176;6.738;2023-12-20T06:50:26;6.30;88.00
53268;DHT22;39156;51.176;6.738;2023-12-20T06:52:52;6.40;88.10
53268;DHT22;39156;51.176;6.738;2023-12-20T06:55:18;6.50;88.00
53268;DHT22;39156;51.176;6.738;2023-12-20T06:57:44;6.50;88.00
53268;DHT22;39156;51.176;6.738;2023-12-20T07:00:10;6.50;88.00
53268;DHT22;39156;51.176;6.738;2023-12-20T07:02:37;6.40;87.90
53268;DHT22;39156;51.176;6.738;2023-12-20T07:05:02;6.50;87.90
53268;DHT22;39156;51.176;6.738;2023-12-20T07:07:28;6.50;87.90
53268;DHT22;39156;51.176;6.738;2023-12-20T07:09:54;6.50;87.90
53268;DHT22;39156;51.176;6.738;2023-12-20T07:12:19;6.50;87.80
53268;DHT22;39156;51.176;6.738;2023-12-20T07:14:45;6.50;87.80
53268;DHT22;39156;51.176;6.738;2023-12-20T07:17:11;6.60;87.90
53268;DHT22;39156;51.176;6.738;2023-12-20T07:19:39;6.50;87.70
53268;DHT22;39156;51.176;6.738;2023-12-20T07:22:05;6.50;87.70
53268;DHT22;39156;51.176;6.738;2023-12-20T07:24:33;6.60;87.70
53268;DHT22;39156;51.176;6.738;2023-12-20T07:26:59;6.50;87.50
53268;DHT22;39156;51.176;6.738;2023-12-20T07:29:25;6.50;87.60
53268;DHT22;39156;51.176;6.738;2023-12-20T07:31:52;6.60;87.60
53268;DHT22;39156;51.176;6.738;2023-12-20T07:34:22;6.60;87.70
53268;DHT22;39156;51.176;6.738;2023-12-20T07:36:47;6.60;87.60
53268;DHT22;39156;51.176;6.738;2023-12-20T07:39:13;6.60;87.40
53268;DHT22;39156;51.176;6.738;2023-12-20T07:41:39;6.60;87.50
53268;DHT22;39156;51.176;6.738;2023-12-20T07:44:05;6.60;87.40
53268;DHT22;39156;51.176;6.738;2023-12-20T07:46:31;6.70;87.30
53268;DHT22;39156;51.176;6.738;2023-12-20T07:48:57;6.80;87.50
53268;DHT22;39156;51.176;6.738;2023-12-20T07:51:23;7.00;87.50
53268;DHT22;39156;51.176;6.738;2023-12-20T07:53:48;6.80;87.30
53268;DHT22;39156;51.176;6.738;2023-12-20T07:56:14;6.70;87.30
53268;DHT22;39156;51.176;6.738;2023-12-20T07:58:41;6.70;87.50
53268;DHT22;39156;51.176;6.738;2023-12-20T08:01:06;6.70;87.30
53268;DHT22;39156;51.176;6.738;2023-12-20T08:03:32;6.70;87.40
53268;DHT22;39156;51.176;6.738;2023-12-20T08:05:57;6.80;87.40
53268;DHT22;39156;51.176;6.738;2023-12-20T08:08:24;6.70;87.30
53268;DHT22;39156;51.176;6.738;2023-12-20T08:10:50;6.80;87.10
53268;DHT22;39156;51.176;6.738;2023-12-20T08:13:16;6.70;87.30
53268;DHT22;39156;51.176;6.738;2023-12-20T08:15:41;6.80;87.20
53268;DHT22;39156;51.176;6.738;2023-12-20T08:18:07;6.80;87.20
53268;DHT22;39156;51.176;6.738;2023-12-20T08:20:33;6.70;87.20
53268;DHT22;39156;51.176;6.738;2023-12-20T08:22:58;6.80;87.20
53268;DHT22;39156;51.176;6.738;2023-12-20T08:25:24;6.70;87.10
53268;DHT22;39156;51.176;6.738;2023-12-20T08:27:49;6.70;87.00
53268;DHT22;39156;51.176;6.738;2023-12-20T08:30:15;6.60;86.90
53268;DHT22;39156;51.176;6.738;2023-12-20T08:32:45;6.60;86.80
53268;DHT22;39156;51.176;6.738;2023-12-20T08:35:11;6.70;87.10
53268;DHT22;39156;51.176;6.738;2023-12-20T08:37:37;6.70;86.80
53268;DHT22;39156;51.176;6.738;2023-12-20T08:40:02;6.60;86.90
53268;DHT22;39156;51.176;6.738;2023-12-20T08:42:28;6.60;86.80
53268;DHT22;39156;51.176;6.738;2023-12-20T08:44:57;6.60;86.90
53268;DHT22;39156;51.176;6.738;2023-12-20T08:47:23;6.60;86.90
53268;DHT22;39156;51.176;6.738;2023-12-20T08:49:49;6.60;87.60
53268;DHT22;39156;51.176;6.738;2023-12-20T08:52:15;6.70;86.90
53268;DHT22;39156;51.176;6.738;2023-12-20T08:54:41;6.60;86.80
53268;DHT22;39156;51.176;6.738;2023-12-20T08:57:06;6.60;86.90
53268;DHT22;39156;51.176;6.738;2023-12-20T08:59:32;6.70;87.10
53268;DHT22;39156;51.176;6.738;2023-12-20T09:01:58;6.60;86.80
53268;DHT22;39156;51.176;6.738;2023-12-20T09:04:24;6.70;87.00
53268;DHT22;39156;51.176;6.738;2023-12-20T09:06:50;6.80;86.80
53268;DHT22;39156;51.176;6.738;2023-12-20T09:09:15;6.70;86.60
53268;DHT22;39156;51.176;6.738;2023-12-20T09:11:41;6.70;86.70
53268;DHT22;39156;51.176;6.738;2023-12-20T09:14:07;6.70;86.80
53268;DHT22;39156;51.176;6.738;2023-12-20T09:16:33;6.70;86.80
53268;DHT22;39156;51.176;6.738;2023-12-20T09:18:58;6.60;86.70
53268;DHT22;39156;51.176;6.738;2023-12-20T09:21:24;6.80;86.90
53268;DHT22;39156;51.176;6.738;2023-12-20T09:23:49;6.70;87.00
53268;DHT22;39156;51.176;6.738;2023-12-20T09:26:15;6.70;87.00
53268;DHT22;39156;51.176;6.738;2023-12-20T09:28:41;6.80;87.00
53268;DHT22;39156;51.176;6.738;2023-12-20T09:31:06;6.80;87.00
53268;DHT22;39156;51.176;6.738;2023-12-20T09:33:32;6.70;86.80
53268;DHT22;39156;51.176;6.738;2023-12-20T09:35:59;6.80;86.90
53268;DHT22;39156;51.176;6.738;2023-12-20T09:38:26;6.80;86.90
53268;DHT22;39156;51.176;6.738;2023-12-20T09:40:52;6.80;86.80
53268;DHT22;39156;51.176;6.738;2023-12-20T09:43:19;6.70;86.60
53268;DHT22;39156;51.176;6.738;2023-12-20T09:45:46;6.80;86.60
53268;DHT22;39156;51.176;6.738;2023-12-20T09:48:12;6.80;86.50
53268;DHT22;39156;51.176;6.738;2023-12-20T09:50:40;6.90;86.50
53268;DHT22;39156;51.176;6.738;2023-12-20T09:53:07;6.90;86.40
53268;DHT22;39156;51.176;6.738;2023-12-20T09:55:34;6.90;86.40
53268;DHT22;39156;51.176;6.738;2023-12-20T09:58:01;6.90;86.20
53268;DHT22;39156;51.176;6.738;2023-12-20T10:00:27;6.90;86.30
53268;DHT22;39156;51.176;6.738;2023-12-20T10:02:59;6.90;86.60
53268;DHT22;39156;51.176;6.738;2023-12-20T10:05:29;7.00;86.60
53268;DHT22;39156;51.176;6.738;2023-12-20T10:07:55;7.10;86.70
53268;DHT22;39156;51.176;6.738;2023-12-20T10:10:21;7.00;86.50
53268;DHT22;39156;51.176;6.738;2023-12-20T10:13:06;7.00;86.60
53268;DHT22;39156;51.176;6.738;2023-12-20T10:15:34;7.10;86.70
53268;DHT22;39156;51.176;6.738;2023-12-20T10:18:03;7.20;86.60
53268;DHT22;39156;51.176;6.738;2023-12-20T10:20:30;7.00;86.30
53268;DHT22;39156;51.176;6.738;2023-12-20T10:22:57;7.10;86.50
53268;DHT22;39156;51.176;6.738;2023-12-20T10:25:23;7.10;86.40
53268;DHT22;39156;51.176;6.738;2023-12-20T10:27:49;7.20;86.60
53268;DHT22;39156;51.176;6.738;2023-12-20T10:30:16;7.20;86.30
53268;DHT22;39156;51.176;6.738;2023-12-20T10:32:41;7.10;86.10
53268;DHT22;39156;51.176;6.738;2023-12-20T10:35:08;7.10;86.00
53268;DHT22;39156;51.176;6.738;2023-12-20T10:37:37;7.10;86.00
53268;DHT22;39156;51.176;6.738;2023-12-20T10:40:03;7.10;85.80
53268;DHT22;39156;51.176;6.738;2023-12-20T10:42:31;7.20;86.30
53268;DHT22;39156;51.176;6.738;2023-12-20T10:44:59;7.20;86.10
53268;DHT22;39156;51.176;6.738;2023-12-20T10:47:25;7.10;86.10
53268;DHT22;39156;51.176;6.738;2023-12-20T10:49:52;7.20;85.90
53268;DHT22;39156;51.176;6.738;2023-12-20T10:52:18;7.20;86.20
53268;DHT22;39156;51.176;6.738;2023-12-20T10:54:44;7.20;86.20
53268;DHT22;39156;51.176;6.738;2023-12-20T10:57:10;7.20;86.60
53268;DHT22;39156;51.176;6.738;2023-12-20T10:59:36;7.30;86.10
53268;DHT22;39156;51.176;6.738;2023-12-20T11:02:03;7.30;86.50
53268;DHT22;39156;51.176;6.738;2023-12-20T11:04:36;7.30;86.40
53268;DHT22;39156;51.176;6.738;2023-12-20T11:07:11;7.30;86.30
53268;DHT22;39156;51.176;6.738;2023-12-20T11:09:56;7.40;86.40
53268;DHT22;39156;51.176;6.738;2023-12-20T11:15:13;7.40;86.00
53268;DHT22;39156;51.176;6.738;2023-12-20T11:17:40;7.30;85.60
53268;DHT22;39156;51.176;6.738;2023-12-20T11:20:07;7.50;85.60
53268;DHT22;39156;51.176;6.738;2023-12-20T11:22:35;7.40;85.60
53268;DHT22;39156;51.176;6.738;2023-12-20T11:25:09;7.40;85.30
53268;DHT22;39156;51.176;6.738;2023-12-20T11:27:36;7.50;85.50
53268;DHT22;39156;51.176;6.738;2023-12-20T11:30:03;7.40;84.90
53268;DHT22;39156;51.176;6.738;2023-12-20T11:32:35;7.30;85.20
53268;DHT22;39156;51.176;6.738;2023-12-20T11:37:37;7.40;85.20
53268;DHT22;39156;51.176;6.738;2023-12-20T11:40:06;7.40;85.30
53268;DHT22;39156;51.176;6.738;2023-12-20T11:42:37;7.40;85.30
53268;DHT22;39156;51.176;6.738;2023-12-20T11:45:04;7.50;85.40
53268;DHT22;39156;51.176;6.738;2023-12-20T11:47:30;7.40;85.30
53268;DHT22;39156;51.176;6.738;2023-12-20T11:49:56;7.30;85.60
53268;DHT22;39156;51.176;6.738;2023-12-20T11:52:22;7.40;85.40
53268;DHT22;39156;51.176;6.738;2023-12-20T11:54:48;7.40;85.40
53268;DHT22;39156;51.176;6.738;2023-12-20T11:57:13;7.40;85.50
53268;DHT22;39156;51.176;6.738;2023-12-20T11:59:39;7.30;85.50
53268;DHT22;39156;51.176;6.738;2023-12-20T12:02:05;7.40;85.40
53268;DHT22;39156;51.176;6.738;2023-12-20T12:04:31;7.40;85.50
53268;DHT22;39156;51.176;6.738;2023-12-20T12:06:56;7.40;85.50
53268;DHT22;39156;51.176;6.738;2023-12-20T12:09:22;7.40;85.40
53268;DHT22;39156;51.176;6.738;2023-12-20T12:11:47;7.40;85.60
53268;DHT22;39156;51.176;6.738;2023-12-20T12:14:13;7.70;85.80
53268;DHT22;39156;51.176;6.738;2023-12-20T12:16:39;7.60;86.00
53268;DHT22;39156;51.176;6.738;2023-12-20T12:19:07;7.60;85.80
53268;DHT22;39156;51.176;6.738;2023-12-20T12:21:32;7.60;85.40
53268;DHT22;39156;51.176;6.738;2023-12-20T12:24:08;7.60;85.30
53268;DHT22;39156;51.176;6.738;2023-12-20T12:26:34;7.70;85.30
53268;DHT22;39156;51.176;6.738;2023-12-20T12:29:00;7.50;85.20
53268;DHT22;39156;51.176;6.738;2023-12-20T12:31:26;7.60;85.30
53268;DHT22;39156;51.176;6.738;2023-12-20T12:33:52;7.60;85.40
53268;DHT22;39156;51.176;6.738;2023-12-20T12:36:17;7.70;85.40
53268;DHT22;39156;51.176;6.738;2023-12-20T12:38:43;7.60;85.60
53268;DHT22;39156;51.176;6.738;2023-12-20T12:41:09;7.60;85.70
53268;DHT22;39156;51.176;6.738;2023-12-20T12:43:36;7.60;85.50
53268;DHT22;39156;51.176;6.738;2023-12-20T12:46:01;7.60;85.40
53268;DHT22;39156;51.176;6.738;2023-12-20T12:48:27;7.50;85.50
53268;DHT22;39156;51.176;6.738;2023-12-20T12:50:53;7.60;85.50
53268;DHT22;39156;51.176;6.738;2023-12-20T12:53:19;7.60;85.40
53268;DHT22;39156;51.176;6.738;2023-12-20T12:55:45;7.60;85.60
53268;DHT22;39156;51.176;6.738;2023-12-20T12:58:11;7.60;85.50
53268;DHT22;39156;51.176;6.738;2023-12-20T13:00:36;7.60;85.70
53268;DHT22;39156;51.176;6.738;2023-12-20T13:03:02;7.70;85.70
53268;DHT22;39156;51.176;6.738;2023-12-20T13:05:29;7.70;85.70
53268;DHT22;39156;51.176;6.738;2023-12-20T13:07:55;7.70;85.80
53268;DHT22;39156;51.176;6.738;2023-12-20T13:10:21;7.70;86.00
53268;DHT22;39156;51.176;6.738;2023-12-20T13:12:46;7.80;85.90
53268;DHT22;39156;51.176;6.738;2023-12-20T13:15:12;8.40;87.00
53268;DHT22;39156;51.176;6.738;2023-12-20T13:17:46;7.80;86.10
53268;DHT22;39156;51.176;6.738;2023-12-20T13:20:12;7.80;86.00
53268;DHT22;39156;51.176;6.738;2023-12-20T13:22:37;7.70;85.90
53268;DHT22;39156;51.176;6.738;2023-12-20T13:25:03;7.70;86.00
53268;DHT22;39156;51.176;6.738;2023-12-20T13:27:29;7.70;86.00
53268;DHT22;39156;51.176;6.738;2023-12-20T13:29:54;7.80;86.10
53268;DHT22;39156;51.176;6.738;2023-12-20T13:32:20;7.70;86.10
53268;DHT22;39156;51.176;6.738;2023-12-20T13:34:46;7.80;86.20
53268;DHT22;39156;51.176;6.738;2023-12-20T13:37:12;7.80;86.20
53268;DHT22;39156;51.176;6.738;2023-12-20T13:39:37;7.70;86.10
53268;DHT22;39156;51.176;6.738;2023-12-20T13:42:03;7.80;86.10
53268;DHT22;39156;51.176;6.738;2023-12-20T13:44:29;7.70;86.10
53268;DHT22;39156;51.176;6.738;2023-12-20T13:46:56;7.70;86.10
53268;DHT22;39156;51.176;6.738;2023-12-20T13:49:21;7.80;86.10
53268;DHT22;39156;51.176;6.738;2023-12-20T13:51:50;7.70;86.20
53268;DHT22;39156;51.176;6.738;2023-12-20T13:54:16;7.60;86.20
53268;DHT22;39156;51.176;6.738;2023-12-20T13:56:45;7.70;86.30
53268;DHT22;39156;51.176;6.738;2023-12-20T13:59:10;7.70;86.30
53268;DHT22;39156;51.176;6.738;2023-12-20T14:01:37;7.70;86.30
53268;DHT22;39156;51.176;6.738;2023-12-20T14:04:03;7.60;86.30
53268;DHT22;39156;51.176;6.738;2023-12-20T14:06:29;7.60;86.30
53268;DHT22;39156;51.176;6.738;2023-12-20T14:08:55;7.70;86.40
53268;DHT22;39156;51.176;6.738;2023-12-20T14:11:20;7.60;86.30
53268;DHT22;39156;51.176;6.738;2023-12-20T14:13:46;7.50;86.40
53268;DHT22;39156;51.176;6.738;2023-12-20T14:16:12;7.60;86.40
53268;DHT22;39156;51.176;6.738;2023-12-20T14:18:37;7.60;86.50
53268;DHT22;39156;51.176;6.738;2023-12-20T14:21:05;7.50;86.40
53268;DHT22;39156;51.176;6.738;2023-12-20T14:23:31;7.60;86.50
53268;DHT22;39156;51.176;6.738;2023-12-20T14:25:58;7.50;86.50
53268;DHT22;39156;51.176;6.738;2023-12-20T14:28:25;7.60;86.60
53268;DHT22;39156;51.176;6.738;2023-12-20T14:30:51;7.60;86.60
53268;DHT22;39156;51.176;6.738;2023-12-20T14:33:16;7.60;86.60
53268;DHT22;39156;51.176;6.738;2023-12-20T14:35:42;7.60;86.60
53268;DHT22;39156;51.176;6.738;2023-12-20T14:38:09;7.60;86.60
53268;DHT22;39156;51.176;6.738;2023-12-20T14:40:35;7.50;86.60
53268;DHT22;39156;51.176;6.738;2023-12-20T14:43:00;7.60;86.70
53268;DHT22;39156;51.176;6.738;2023-12-20T14:45:29;7.60;86.70
53268;DHT22;39156;51.176;6.738;2023-12-20T14:47:55;7.60;86.60
53268;DHT22;39156;51.176;6.738;2023-12-20T14:50:21;7.50;86.60
53268;DHT22;39156;51.176;6.738;2023-12-20T14:52:47;7.70;86.70
53268;DHT22;39156;51.176;6.738;2023-12-20T14:55:12;7.60;86.70
53268;DHT22;39156;51.176;6.738;2023-12-20T14:57:38;7.60;86.70
53268;DHT22;39156;51.176;6.738;2023-12-20T15:00:04;7.60;86.80
53268;DHT22;39156;51.176;6.738;2023-12-20T15:02:30;7.50;86.80
53268;DHT22;39156;51.176;6.738;2023-12-20T15:04:57;7.60;86.80
53268;DHT22;39156;51.176;6.738;2023-12-20T15:07:22;7.70;86.90
53268;DHT22;39156;51.176;6.738;2023-12-20T15:09:48;7.60;86.90
53268;DHT22;39156;51.176;6.738;2023-12-20T15:12:14;7.60;86.80
53268;DHT22;39156;51.176;6.738;2023-12-20T15:14:40;7.60;86.80
53268;DHT22;39156;51.176;6.738;2023-12-20T15:17:05;7.60;86.80
53268;DHT22;39156;51.176;6.738;2023-12-20T15:19:31;7.60;86.80
53268;DHT22;39156;51.176;6.738;2023-12-20T15:21:57;7.60;86.90
53268;DHT22;39156;51.176;6.738;2023-12-20T15:24:24;7.70;86.90
53268;DHT22;39156;51.176;6.738;2023-12-20T15:26:54;7.60;86.90
53268;DHT22;39156;51.176;6.738;2023-12-20T15:29:21;7.60;86.90
53268;DHT22;39156;51.176;6.738;2023-12-20T15:31:46;7.70;87.00
53268;DHT22;39156;51.176;6.738;2023-12-20T15:34:13;7.60;86.80
53268;DHT22;39156;51.176;6.738;2023-12-20T15:36:39;7.60;86.90
53268;DHT22;39156;51.176;6.738;2023-12-20T15:39:05;7.70;87.60
53268;DHT22;39156;51.176;6.738;2023-12-20T15:41:33;7.70;87.20
53268;DHT22;39156;51.176;6.738;2023-12-20T15:43:59;7.60;87.00